Time;durP1;ratioP1;P1;durP2;ratioP2;P2;SDS_P1;SDS_P2;PMS_P1;PMS_P2;Temp;Humidity;BMP_temperature;BMP_pressure;BME280_temperature;BME280_humidity;BME280_pressure;Samples;Min_cycle;Max_cycle;Signal;HPM_P1;HPM_P2
2021/12/08 00:00:12;;;;;;;4.18;1.80;;;4.50;94.40;;;;;;2072539;28;20025;-92
2021/12/08 00:01:20;;;;;;;4.65;2.20;;;4.50;94.50;;;;;;2074809;28;20383;-92
2021/12/08 00:02:21;;;;;;;5.50;2.25;;;4.50;94.50;;;;;;2081406;28;20038;-92
2021/12/08 00:03:23;;;;;;;5.22;1.92;;;4.50;94.50;;;;;;2090850;28;20029;-92
2021/12/08 00:04:24;;;;;;;5.40;2.40;;;4.50;94.50;;;;;;2079556;28;20048;-92
2021/12/08 00:05:25;;;;;;;3.97;1.90;;;4.50;94.50;;;;;;2059754;28;20517;-91
2021/12/08 00:06:26;;;;;;;4.85;2.00;;;4.50;94.50;;;;;;2072597;28;20096;-91
2021/12/08 00:07:27;;;;;;;5.03;2.22;;;4.50;94.50;;;;;;2081424;28;20483;-90
2021/12/08 00:08:29;;;;;;;5.25;2.10;;;4.40;94.50;;;;;;2090777;28;20490;-91
2021/12/08 00:10:14;;;;;;;3.78;1.98;;;4.40;94.50;;;;;;2091242;28;20029;-90
2021/12/08 00:13:17;;;;;;;5.78;2.13;;;4.40;94.60;;;;;;2091439;28;20100;-91
2021/12/08 00:14:18;;;;;;;6.63;1.88;;;4.40;94.60;;;;;;2082280;28;20132;-91
2021/12/08 00:15:18;;;;;;;4.10;2.25;;;4.40;94.50;;;;;;2073894;28;20061;-92
2021/12/08 00:16:19;;;;;;;4.78;2.20;;;4.40;94.60;;;;;;2080937;28;20526;-93
2021/12/08 00:17:20;;;;;;;5.30;2.10;;;4.40;94.60;;;;;;2090757;28;20052;-90
2021/12/08 00:18:25;;;;;;;4.70;2.15;;;4.40;94.60;;;;;;2080972;28;20022;-91
2021/12/08 00:19:27;;;;;;;7.70;2.35;;;4.40;94.60;;;;;;2074567;28;20025;-91
2021/12/08 00:20:31;;;;;;;6.05;1.95;;;4.40;94.70;;;;;;2090746;28;20033;-89
2021/12/08 00:21:32;;;;;;;5.85;2.40;;;4.40;94.70;;;;;;2090996;28;20467;-91
2021/12/08 00:22:32;;;;;;;5.43;2.20;;;4.40;94.70;;;;;;2090797;28;20116;-91
2021/12/08 00:23:33;;;;;;;8.95;2.92;;;4.40;94.70;;;;;;2082275;28;20026;-92
2021/12/08 00:24:34;;;;;;;3.38;1.98;;;4.40;94.70;;;;;;2082563;28;20454;-91
2021/12/08 00:25:36;;;;;;;7.03;2.47;;;4.40;94.70;;;;;;2089006;28;20048;-90
2021/12/08 00:26:37;;;;;;;5.57;2.40;;;4.40;94.70;;;;;;2089684;28;20044;-90
2021/12/08 00:27:37;;;;;;;6.25;2.42;;;4.40;94.70;;;;;;2065907;28;20035;-92
2021/12/08 00:28:38;;;;;;;6.00;1.90;;;4.40;94.70;;;;;;2042375;29;20509;-91
2021/12/08 00:29:39;;;;;;;5.47;2.50;;;4.40;94.70;;;;;;2050164;28;20420;-92
2021/12/08 00:30:43;;;;;;;6.90;2.20;;;4.40;94.70;;;;;;2073710;28;20030;-92
2021/12/08 00:31:46;;;;;;;6.90;2.10;;;4.40;94.80;;;;;;2070829;28;20519;-91
2021/12/08 00:32:47;;;;;;;4.32;2.17;;;4.40;94.80;;;;;;2065810;28;20022;-91
2021/12/08 00:33:48;;;;;;;5.78;2.42;;;4.40;94.80;;;;;;2058649;28;20026;-92
2021/12/08 00:34:48;;;;;;;5.43;2.30;;;4.40;94.80;;;;;;2059812;28;20031;-91
2021/12/08 00:35:51;;;;;;;4.07;2.20;;;4.40;94.80;;;;;;2059294;28;20027;-91
2021/12/08 00:36:56;;;;;;;6.13;2.47;;;4.40;94.90;;;;;;2070546;28;20053;-91
2021/12/08 00:37:58;;;;;;;4.97;2.50;;;4.40;94.80;;;;;;2078398;28;20029;-84
2021/12/08 00:38:58;;;;;;;6.35;2.30;;;4.40;95.10;;;;;;2092914;28;20040;-81
2021/12/08 00:39:59;;;;;;;4.43;2.33;;;4.40;94.80;;;;;;2083816;28;20022;-88
2021/12/08 00:41:00;;;;;;;4.43;2.00;;;4.40;94.80;;;;;;2075023;28;20030;-88
2021/12/08 00:42:02;;;;;;;4.00;2.33;;;4.40;94.90;;;;;;2083405;28;20040;-88
2021/12/08 00:43:05;;;;;;;5.78;2.38;;;4.40;94.90;;;;;;2083045;28;20017;-88
2021/12/08 00:44:06;;;;;;;5.70;2.22;;;4.40;94.90;;;;;;2074310;28;20026;-87
2021/12/08 00:45:09;;;;;;;5.72;2.40;;;4.40;94.90;;;;;;2064024;28;20102;-90
2021/12/08 00:46:10;;;;;;;5.35;2.40;;;4.40;94.90;;;;;;2068541;28;20042;-91
2021/12/08 00:47:10;;;;;;;5.35;2.30;;;4.40;94.90;;;;;;2051782;28;20033;-92
2021/12/08 00:48:11;;;;;;;3.85;2.10;;;4.40;94.90;;;;;;2050049;29;20501;-92
2021/12/08 00:49:14;;;;;;;4.45;2.50;;;4.40;94.90;;;;;;2056405;28;20037;-91
2021/12/08 00:50:16;;;;;;;3.42;1.98;;;4.40;94.90;;;;;;2058166;28;20035;-91
2021/12/08 00:51:18;;;;;;;3.22;2.03;;;4.40;95.00;;;;;;2050434;28;20053;-92
2021/12/08 00:52:20;;;;;;;4.47;2.20;;;4.40;95.00;;;;;;2071328;28;20038;-91
2021/12/08 00:53:21;;;;;;;4.82;2.35;;;4.40;95.00;;;;;;2065768;28;20018;-91
2021/12/08 00:54:21;;;;;;;5.43;2.53;;;4.40;95.00;;;;;;2062653;28;20041;-92
2021/12/08 00:55:23;;;;;;;6.30;2.50;;;4.40;95.00;;;;;;2065487;28;20066;-91
2021/12/08 00:56:23;;;;;;;5.50;2.40;;;4.40;95.00;;;;;;2057618;28;20026;-92
2021/12/08 00:57:24;;;;;;;5.18;2.40;;;4.40;95.00;;;;;;2050177;29;20035;-90
2021/12/08 00:58:25;;;;;;;6.25;2.42;;;4.40;95.10;;;;;;2052980;28;20039;-90
2021/12/08 00:59:25;;;;;;;4.43;2.45;;;4.40;95.10;;;;;;2071598;28;20498;-92
2021/12/08 01:00:30;;;;;;;4.40;2.05;;;4.40;95.10;;;;;;2064638;28;20464;-91
2021/12/08 01:01:31;;;;;;;6.22;2.60;;;4.40;95.30;;;;;;2059620;28;20026;-91
2021/12/08 01:02:32;;;;;;;4.28;2.40;;;4.50;95.10;;;;;;2067933;28;20033;-90
2021/12/08 01:03:32;;;;;;;5.13;2.28;;;4.40;95.10;;;;;;2057785;28;20093;-91
2021/12/08 01:04:35;;;;;;;6.05;2.63;;;4.40;95.10;;;;;;2065813;28;20026;-91
2021/12/08 01:05:40;;;;;;;5.88;2.58;;;4.40;95.10;;;;;;2059580;28;20126;-89
2021/12/08 01:06:42;;;;;;;4.43;2.20;;;4.40;95.10;;;;;;2056756;28;20023;-91
2021/12/08 01:07:44;;;;;;;5.15;2.60;;;4.40;95.20;;;;;;2063380;28;20054;-91
2021/12/08 01:08:44;;;;;;;7.07;3.00;;;4.40;95.20;;;;;;2069724;28;20388;-90
2021/12/08 01:09:46;;;;;;;6.22;2.42;;;4.40;95.20;;;;;;2065215;28;20121;-91
2021/12/08 01:10:50;;;;;;;5.45;2.53;;;4.40;95.20;;;;;;2057922;28;20027;-92
2021/12/08 01:11:50;;;;;;;6.00;2.50;;;4.50;95.30;;;;;;2058755;28;20023;-92
2021/12/08 01:12:52;;;;;;;5.85;2.40;;;4.50;95.30;;;;;;2057762;28;20145;-92
2021/12/08 01:13:53;;;;;;;5.93;2.65;;;4.50;95.30;;;;;;2057458;28;20031;-89
2021/12/08 01:14:53;;;;;;;5.30;2.30;;;4.50;95.20;;;;;;2065834;28;20019;-92
2021/12/08 01:15:56;;;;;;;3.67;2.20;;;4.50;95.20;;;;;;2057390;28;20490;-92
2021/12/08 01:16:57;;;;;;;5.43;2.47;;;4.50;95.20;;;;;;2065910;28;20049;-92
2021/12/08 01:17:58;;;;;;;4.00;2.22;;;4.50;95.20;;;;;;2065863;28;20030;-91
2021/12/08 01:18:58;;;;;;;5.38;2.40;;;4.50;95.20;;;;;;2049315;29;20145;-92
2021/12/08 01:20:00;;;;;;;4.40;2.22;;;4.50;95.30;;;;;;2058051;28;20037;-92
2021/12/08 01:21:04;;;;;;;4.38;2.13;;;4.50;95.20;;;;;;2061792;28;20034;-91
2021/12/08 01:22:04;;;;;;;5.43;2.15;;;4.50;95.20;;;;;;2072462;28;20028;-92
2021/12/08 01:23:05;;;;;;;4.15;2.20;;;4.60;95.30;;;;;;2065167;28;20428;-93
2021/12/08 01:24:06;;;;;;;4.28;1.95;;;4.60;95.30;;;;;;2049162;28;20027;-92
2021/12/08 01:25:07;;;;;;;3.63;2.20;;;4.60;95.20;;;;;;2041043;29;20032;-92
2021/12/08 01:26:08;;;;;;;4.38;2.10;;;4.60;95.30;;;;;;2055656;28;20034;-93
2021/12/08 01:27:09;;;;;;;3.88;2.13;;;4.60;95.30;;;;;;2072285;28;20055;-92
2021/12/08 01:28:10;;;;;;;5.25;2.38;;;4.60;95.30;;;;;;2081478;28;20033;-92
2021/12/08 01:29:10;;;;;;;4.60;2.20;;;4.60;95.30;;;;;;2081783;28;20512;-91
2021/12/08 01:30:12;;;;;;;3.95;2.10;;;4.60;95.30;;;;;;2078211;28;20026;-93
2021/12/08 01:31:13;;;;;;;4.25;2.10;;;4.60;95.30;;;;;;2081798;28;20025;-91
2021/12/08 01:32:14;;;;;;;4.70;1.80;;;4.60;95.30;;;;;;2085945;28;20475;-92
2021/12/08 01:33:16;;;;;;;3.70;2.08;;;4.60;95.30;;;;;;2090035;28;20154;-92
2021/12/08 01:34:17;;;;;;;4.70;2.10;;;4.60;95.30;;;;;;2090596;28;20025;-91
2021/12/08 01:35:17;;;;;;;5.22;2.08;;;4.60;95.30;;;;;;2090058;28;20025;-92
2021/12/08 01:36:18;;;;;;;4.40;2.03;;;4.70;95.40;;;;;;2087373;28;20043;-92
2021/12/08 01:37:20;;;;;;;3.83;2.05;;;4.70;95.40;;;;;;2081304;28;20499;-93
2021/12/08 01:38:22;;;;;;;3.92;2.25;;;4.60;95.30;;;;;;2079672;28;20029;-92
2021/12/08 01:39:22;;;;;;;3.30;1.90;;;4.70;95.40;;;;;;2073153;28;20038;-92
2021/12/08 01:40:23;;;;;;;2.90;1.88;;;4.70;95.40;;;;;;2064973;28;20062;-92
2021/12/08 01:41:25;;;;;;;5.75;2.13;;;4.70;95.40;;;;;;2059232;28;20126;-92
2021/12/08 01:42:31;;;;;;;3.70;1.92;;;4.70;95.40;;;;;;2078588;28;20412;-92
2021/12/08 01:45:56;;;;;;;2.70;1.83;;;4.70;95.40;;;;;;2081986;28;20026;-92
2021/12/08 01:46:25;;;;;;;3.70;1.65;;;4.70;95.40;;;;;;2088946;28;20040;-92
2021/12/08 01:47:29;;;;;;;3.35;1.58;;;4.70;95.30;;;;;;2072877;28;20125;-92
2021/12/08 01:48:37;;;;;;;3.03;1.63;;;4.70;95.30;;;;;;2074174;28;20111;-92
2021/12/08 01:49:38;;;;;;;3.22;1.80;;;4.80;95.40;;;;;;2083138;28;20025;-92
2021/12/08 01:50:40;;;;;;;3.03;1.63;;;4.80;95.40;;;;;;2077525;28;20053;-92
2021/12/08 01:51:41;;;;;;;4.43;1.60;;;4.70;95.30;;;;;;2083624;28;20095;-92
2021/12/08 01:52:42;;;;;;;3.63;1.98;;;4.80;95.40;;;;;;2083493;28;20131;-92
2021/12/08 01:53:47;;;;;;;3.53;1.67;;;4.80;95.40;;;;;;2073595;28;20037;-92
2021/12/08 01:54:48;;;;;;;2.45;1.60;;;4.80;95.40;;;;;;2081849;28;20117;-92
2021/12/08 01:55:49;;;;;;;2.72;1.75;;;4.80;95.40;;;;;;2087615;28;20120;-93
2021/12/08 01:56:50;;;;;;;2.75;1.70;;;4.80;95.40;;;;;;2092691;28;20119;-92
2021/12/08 01:57:50;;;;;;;3.75;1.95;;;4.80;95.40;;;;;;2091070;28;20107;-91
2021/12/08 01:58:51;;;;;;;4.10;1.92;;;4.80;95.40;;;;;;2081863;28;20159;-92
2021/12/08 01:59:52;;;;;;;3.22;2.00;;;4.80;95.40;;;;;;2073345;28;20022;-92
2021/12/08 02:00:57;;;;;;;3.60;1.80;;;4.80;95.40;;;;;;2073500;28;20116;-92
2021/12/08 02:01:57;;;;;;;3.53;1.80;;;4.90;95.40;;;;;;2096399;28;20013;-91
2021/12/08 02:02:58;;;;;;;3.72;1.98;;;4.80;95.40;;;;;;2096127;28;20061;-92
2021/12/08 02:04:04;;;;;;;3.78;1.90;;;4.90;95.40;;;;;;2091037;28;20025;-92
2021/12/08 02:05:05;;;;;;;4.90;2.17;;;4.90;95.40;;;;;;2099699;28;20075;-85
2021/12/08 02:06:07;;;;;;;3.10;1.80;;;4.90;95.40;;;;;;2094494;28;20407;-92
2021/12/08 02:07:08;;;;;;;2.92;1.90;;;4.90;95.40;;;;;;2088868;28;20024;-92
2021/12/08 02:08:09;;;;;;;3.53;1.80;;;4.90;95.40;;;;;;2082175;28;20025;-92
2021/12/08 02:09:13;;;;;;;3.25;1.70;;;4.90;95.40;;;;;;2074762;28;20058;-92
2021/12/08 02:10:14;;;;;;;3.92;1.67;;;5.00;95.40;;;;;;2078581;28;20026;-91
2021/12/08 02:11:15;;;;;;;4.13;1.70;;;5.00;95.40;;;;;;2073208;28;20037;-92
2021/12/08 02:12:16;;;;;;;2.50;1.45;;;4.90;95.40;;;;;;2064662;28;20041;-92
2021/12/08 02:13:17;;;;;;;2.88;1.58;;;5.00;95.40;;;;;;2065317;28;20116;-92
2021/12/08 02:14:18;;;;;;;3.22;1.50;;;5.00;95.50;;;;;;2078356;28;20029;-91
2021/12/08 02:15:20;;;;;;;4.18;1.83;;;5.00;95.40;;;;;;2073760;28;20039;-92
2021/12/08 02:16:21;;;;;;;3.22;1.90;;;5.10;95.50;;;;;;2090459;28;20562;-92
2021/12/08 02:17:22;;;;;;;2.95;1.73;;;5.10;95.50;;;;;;2085739;28;20079;-92
2021/12/08 02:18:22;;;;;;;3.35;1.80;;;5.10;95.50;;;;;;2088905;28;20462;-92
2021/12/08 02:19:23;;;;;;;2.88;1.50;;;5.10;95.40;;;;;;2090665;28;20551;-91
2021/12/08 02:20:27;;;;;;;3.33;1.40;;;5.10;95.40;;;;;;2090722;28;20491;-92
2021/12/08 02:21:31;;;;;;;3.35;1.60;;;5.10;95.70;;;;;;2090160;28;20025;-91
2021/12/08 02:22:32;;;;;;;4.40;1.67;;;5.10;95.40;;;;;;2089144;28;20029;-90
2021/12/08 02:23:33;;;;;;;3.40;1.70;;;5.10;95.40;;;;;;2086731;28;20381;-90
2021/12/08 02:24:34;;;;;;;2.50;1.65;;;5.20;95.50;;;;;;2089306;28;20153;-90
2021/12/08 02:25:35;;;;;;;3.30;2.08;;;5.20;95.40;;;;;;2100050;28;20093;-88
2021/12/08 02:26:38;;;;;;;3.67;1.85;;;5.20;95.70;;;;;;2099922;28;20053;-90
2021/12/08 02:27:39;;;;;;;2.33;1.50;;;5.20;95.40;;;;;;2098367;28;20009;-88
2021/12/08 02:28:40;;;;;;;2.55;1.60;;;5.30;95.50;;;;;;2092134;28;20021;-89
2021/12/08 02:29:51;;;;;;;3.65;1.70;;;5.20;95.40;;;;;;2092213;28;20085;-90
2021/12/08 02:30:59;;;;;;;3.00;1.58;;;5.30;95.50;;;;;;2090988;28;20041;-91
2021/12/08 02:32:09;;;;;;;3.13;1.50;;;5.30;95.40;;;;;;2072259;28;20512;-90
2021/12/08 02:46:47;;;;;;;4.15;1.52;;;5.40;95.30;;;;;;2073423;28;20041;-91
2021/12/08 02:47:54;;;;;;;4.68;1.50;;;5.40;95.30;;;;;;2085842;28;20026;-92
2021/12/08 02:48:55;;;;;;;3.20;1.42;;;5.40;95.30;;;;;;2066197;28;20030;-92
2021/12/08 02:49:57;;;;;;;2.28;1.23;;;5.40;95.30;;;;;;2067345;28;20084;-91
2021/12/08 02:50:58;;;;;;;3.63;1.50;;;5.40;95.30;;;;;;2065738;28;20174;-91
2021/12/08 02:52:00;;;;;;;2.05;1.30;;;5.50;95.30;;;;;;2073527;28;20041;-92
2021/12/08 02:53:04;;;;;;;2.25;1.23;;;5.50;95.30;;;;;;2066747;28;20058;-92
2021/12/08 02:54:06;;;;;;;3.20;1.42;;;5.50;95.30;;;;;;2058880;28;20031;-92
2021/12/08 02:55:08;;;;;;;3.00;1.25;;;5.50;95.30;;;;;;2057981;28;20103;-91
2021/12/08 02:56:09;;;;;;;4.90;1.33;;;5.50;95.40;;;;;;2065967;28;20023;-91
2021/12/08 02:57:11;;;;;;;2.30;1.20;;;5.50;95.40;;;;;;2074834;28;20029;-91
2021/12/08 02:58:13;;;;;;;2.53;1.13;;;5.50;95.40;;;;;;2057322;28;20035;-91
2021/12/08 02:59:15;;;;;;;2.78;1.35;;;5.50;95.70;;;;;;2059489;28;20081;-91
2021/12/08 03:00:23;;;;;;;2.78;1.30;;;5.50;95.40;;;;;;2060107;28;20027;-91
2021/12/08 03:01:25;;;;;;;3.45;1.27;;;5.50;95.40;;;;;;2075187;28;20057;-92
2021/12/08 03:02:26;;;;;;;1.35;1.00;;;5.50;95.40;;;;;;2074325;28;20037;-92
2021/12/08 03:03:27;;;;;;;2.55;1.20;;;5.50;95.40;;;;;;2078199;28;20469;-93
2021/12/08 03:04:28;;;;;;;2.28;1.20;;;5.60;95.50;;;;;;2074091;28;20283;-91
2021/12/08 03:05:29;;;;;;;2.25;1.20;;;5.60;95.50;;;;;;2074831;28;20030;-91
2021/12/08 03:06:30;;;;;;;3.40;1.45;;;5.60;95.50;;;;;;2066804;28;20495;-92
2021/12/08 03:07:30;;;;;;;2.72;1.30;;;5.60;95.50;;;;;;2074545;28;20074;-91
2021/12/08 03:08:32;;;;;;;2.92;1.20;;;5.60;95.50;;;;;;2065866;28;20472;-91
2021/12/08 03:09:33;;;;;;;3.30;1.40;;;5.60;95.50;;;;;;2074584;28;20029;-91
2021/12/08 03:10:39;;;;;;;2.20;1.20;;;5.60;95.50;;;;;;2082611;28;20021;-92
2021/12/08 03:11:39;;;;;;;3.20;1.30;;;5.60;95.50;;;;;;2081588;28;20048;-91
2021/12/08 03:12:41;;;;;;;2.10;1.10;;;5.60;95.50;;;;;;2080517;28;20399;-92
2021/12/08 03:13:56;;;;;;;2.42;1.40;;;5.60;95.50;;;;;;2081097;28;20380;-91
2021/12/08 03:14:57;;;;;;;3.35;1.48;;;5.60;95.50;;;;;;2075285;28;20377;-92
2021/12/08 03:15:58;;;;;;;3.33;1.30;;;5.60;95.50;;;;;;2066452;28;20054;-92
2021/12/08 03:17:03;;;;;;;1.90;1.10;;;5.50;95.50;;;;;;2057959;28;20120;-91
2021/12/08 03:18:04;;;;;;;2.67;1.25;;;5.50;95.50;;;;;;2058964;28;20473;-90
2021/12/08 03:19:05;;;;;;;2.65;1.42;;;5.50;95.50;;;;;;2070996;28;20058;-92
2021/12/08 03:20:09;;;;;;;3.45;1.30;;;5.50;95.60;;;;;;2075859;28;20022;-91
2021/12/08 03:21:10;;;;;;;3.35;1.42;;;5.50;95.60;;;;;;2058389;28;20593;-92
2021/12/08 03:22:11;;;;;;;2.63;1.40;;;5.50;95.60;;;;;;2066566;28;20027;-89
2021/12/08 03:23:19;;;;;;;2.10;1.10;;;5.50;95.60;;;;;;2079853;28;20033;-90
2021/12/08 03:24:28;;;;;;;2.85;1.35;;;5.50;95.70;;;;;;2083886;28;20491;-92
2021/12/08 03:25:34;;;;;;;2.47;1.08;;;5.40;95.70;;;;;;2083289;28;20036;-91
2021/12/08 03:26:44;;;;;;;2.47;1.25;;;5.40;95.70;;;;;;2084159;28;20053;-92
2021/12/08 03:28:08;;;;;;;1.38;0.90;;;5.40;95.70;;;;;;2084600;28;20017;-91
2021/12/08 03:29:20;;;;;;;2.88;1.15;;;5.50;95.70;;;;;;2082764;28;20419;-92
2021/12/08 03:30:36;;;;;;;1.17;0.75;;;5.40;95.70;;;;;;2082069;28;20033;-92
2021/12/08 03:31:42;;;;;;;2.10;0.93;;;5.40;95.70;;;;;;2074455;28;20088;-92
2021/12/08 03:32:43;;;;;;;3.45;1.00;;;5.50;95.70;;;;;;2069809;28;20041;-91
2021/12/08 03:33:44;;;;;;;2.25;0.80;;;5.50;95.70;;;;;;2067055;28;20033;-92
2021/12/08 03:34:51;;;;;;;2.05;0.90;;;5.40;95.70;;;;;;2067195;28;20070;-91
2021/12/08 03:35:52;;;;;;;1.52;0.80;;;5.40;95.70;;;;;;2075238;28;20097;-91
2021/12/08 03:36:53;;;;;;;2.08;0.98;;;5.50;95.70;;;;;;2074603;28;20093;-91
2021/12/08 03:37:54;;;;;;;2.38;1.10;;;5.50;95.80;;;;;;2074928;28;20030;-91
2021/12/08 03:38:55;;;;;;;2.92;1.00;;;5.50;95.80;;;;;;2083070;28;20061;-91
2021/12/08 03:39:57;;;;;;;3.38;1.20;;;5.50;95.80;;;;;;2083393;28;20088;-92
2021/12/08 03:40:59;;;;;;;2.10;1.00;;;5.50;95.80;;;;;;2081833;28;20208;-93
2021/12/08 03:42:02;;;;;;;2.75;1.13;;;5.50;95.80;;;;;;2082095;28;20583;-91
2021/12/08 03:43:03;;;;;;;2.55;0.90;;;5.50;95.80;;;;;;2074632;28;20034;-92
2021/12/08 03:44:05;;;;;;;3.00;1.20;;;5.50;95.80;;;;;;2058441;28;20038;-91
2021/12/08 03:45:13;;;;;;;2.00;1.20;;;5.50;95.80;;;;;;2059079;28;20030;-91
2021/12/08 03:46:16;;;;;;;1.85;0.95;;;5.60;95.80;;;;;;2075030;28;20404;-91
2021/12/08 03:47:25;;;;;;;2.80;1.02;;;5.60;95.80;;;;;;2082802;28;20028;-91
2021/12/08 03:48:32;;;;;;;2.83;1.08;;;5.60;95.80;;;;;;2074839;28;20034;-91
2021/12/08 03:49:32;;;;;;;2.40;1.00;;;5.60;95.80;;;;;;2076276;28;20025;-91
2021/12/08 03:50:37;;;;;;;2.10;1.10;;;5.60;95.70;;;;;;2065424;28;20062;-91
2021/12/08 03:51:39;;;;;;;3.33;1.65;;;5.70;95.70;;;;;;2059597;28;20093;-91
2021/12/08 03:52:40;;;;;;;2.03;0.90;;;5.60;95.70;;;;;;2074470;28;20085;-92
2021/12/08 03:53:41;;;;;;;2.22;0.80;;;5.60;95.70;;;;;;2066185;28;20517;-92
2021/12/08 03:54:41;;;;;;;3.58;1.10;;;5.70;95.70;;;;;;2066481;28;20038;-92
2021/12/08 03:55:45;;;;;;;2.00;0.90;;;5.70;95.70;;;;;;2058292;28;20030;-91
2021/12/08 03:56:46;;;;;;;2.47;0.80;;;5.70;95.70;;;;;;2051059;28;20027;-90
2021/12/08 03:57:46;;;;;;;1.80;0.80;;;5.70;95.70;;;;;;2058612;28;20035;-91
2021/12/08 03:58:47;;;;;;;3.90;1.15;;;5.70;95.70;;;;;;2058380;28;20058;-92
2021/12/08 03:59:48;;;;;;;2.65;1.00;;;5.70;95.70;;;;;;2073511;28;20078;-92
2021/12/08 04:00:50;;;;;;;2.75;1.05;;;5.70;95.70;;;;;;2081622;28;20439;-92
2021/12/08 04:01:51;;;;;;;3.35;1.00;;;5.80;95.70;;;;;;2066692;28;20068;-91
2021/12/08 04:02:52;;;;;;;1.90;0.85;;;5.80;95.70;;;;;;2050880;28;20035;-91
2021/12/08 04:03:53;;;;;;;2.20;1.00;;;5.80;95.70;;;;;;2063936;28;20030;-91
2021/12/08 04:04:53;;;;;;;1.55;0.90;;;5.80;95.70;;;;;;2073992;28;20482;-92
2021/12/08 04:05:57;;;;;;;2.83;1.23;;;5.80;95.70;;;;;;2073321;28;20089;-91
2021/12/08 04:07:02;;;;;;;1.30;0.75;;;5.80;95.60;;;;;;2071241;28;20103;-90
2021/12/08 04:08:14;;;;;;;4.07;0.90;;;5.80;95.60;;;;;;2059092;28;20035;-91
2021/12/08 04:09:39;;;;;;;1.70;0.95;;;5.80;95.60;;;;;;2054138;28;20023;-92
2021/12/08 04:10:39;;;;;;;2.60;0.80;;;5.90;95.60;;;;;;2063435;28;20030;-92
2021/12/08 04:11:39;;;;;;;2.65;0.82;;;5.90;95.90;;;;;;2070696;28;20392;-92
2021/12/08 04:12:40;;;;;;;2.03;0.98;;;5.90;95.60;;;;;;2076034;28;20030;-92
2021/12/08 04:13:49;;;;;;;2.88;0.98;;;5.90;95.60;;;;;;2087347;28;20030;-85
2021/12/08 04:15:03;;;;;;;1.95;0.95;;;5.90;95.60;;;;;;2092866;28;20009;-82
2021/12/08 04:16:07;;;;;;;4.22;1.00;;;5.90;95.60;;;;;;2084753;28;20042;-87
2021/12/08 04:17:14;;;;;;;2.50;0.90;;;5.90;95.60;;;;;;2084397;28;20030;-93
2021/12/08 04:18:15;;;;;;;2.75;0.80;;;5.90;95.50;;;;;;2083726;28;20014;-83
2021/12/08 04:19:17;;;;;;;3.45;1.45;;;5.90;95.50;;;;;;2068417;28;20018;-85
2021/12/08 04:20:19;;;;;;;3.45;0.98;;;5.90;95.50;;;;;;2074322;28;20018;-91
2021/12/08 04:21:20;;;;;;;1.80;0.80;;;6.00;95.50;;;;;;2076551;28;20029;-92
2021/12/08 04:22:34;;;;;;;2.83;0.90;;;6.00;95.50;;;;;;2065815;28;20142;-93
2021/12/08 04:23:38;;;;;;;2.33;0.80;;;6.00;95.50;;;;;;2073210;28;20056;-92
2021/12/08 04:24:43;;;;;;;2.80;0.73;;;6.00;95.50;;;;;;2082598;28;20146;-92
2021/12/08 04:25:50;;;;;;;2.97;1.08;;;6.00;95.50;;;;;;2081655;28;20038;-92
2021/12/08 04:26:58;;;;;;;3.33;1.00;;;6.00;95.50;;;;;;2066866;28;20029;-92
2021/12/08 04:28:03;;;;;;;1.90;0.73;;;6.00;95.50;;;;;;2067852;28;20025;-93
2021/12/08 04:29:06;;;;;;;2.67;1.00;;;6.00;95.50;;;;;;2082747;28;20026;-92
2021/12/08 04:30:15;;;;;;;2.22;0.80;;;6.00;95.50;;;;;;2078904;28;20022;-92
2021/12/08 04:31:20;;;;;;;2.25;0.82;;;6.00;95.50;;;;;;2086541;28;20032;-92
2021/12/08 04:32:25;;;;;;;3.80;1.00;;;6.00;95.50;;;;;;2091282;28;20041;-92
2021/12/08 04:33:26;;;;;;;1.90;0.85;;;6.00;95.50;;;;;;2089857;28;20112;-93
2021/12/08 04:34:33;;;;;;;3.70;1.00;;;6.00;95.50;;;;;;2091048;28;20033;-92
2021/12/08 04:35:35;;;;;;;1.50;0.90;;;6.00;95.50;;;;;;2083471;28;20025;-92
2021/12/08 04:36:43;;;;;;;3.42;0.80;;;6.00;95.50;;;;;;2074637;28;20117;-91
2021/12/08 04:37:48;;;;;;;2.42;0.80;;;6.00;95.50;;;;;;2081567;28;20029;-93
2021/12/08 04:38:53;;;;;;;3.58;0.90;;;6.00;95.50;;;;;;2081330;28;20029;-92
2021/12/08 04:40:18;;;;;;;2.78;0.80;;;6.00;95.50;;;;;;2083092;28;20522;-92
2021/12/08 04:41:29;;;;;;;2.90;0.80;;;6.10;95.70;;;;;;2084863;28;20027;-92
2021/12/08 04:42:59;;;;;;;;;;;6.00;95.50;;;;;;2084807;28;20017;-93
2021/12/08 04:45:07;;;;;;;1.75;0.90;;;6.00;95.40;;;;;;2091636;28;20025;-92
2021/12/08 05:05:09;;;;;;;1.67;0.70;;;5.80;95.60;;;;;;2090818;28;20035;-92
2021/12/08 05:06:35;;;;;;;3.15;1.02;;;5.80;95.30;;;;;;2073908;28;20038;-92
2021/12/08 05:09:22;;;;;;;2.35;0.70;;;5.80;95.30;;;;;;2058340;28;20125;-92
2021/12/08 05:10:31;;;;;;;1.80;0.52;;;5.80;95.40;;;;;;2061496;28;20121;-92
2021/12/08 05:11:35;;;;;;;5.03;0.90;;;5.70;95.30;;;;;;2075667;28;20458;-92
2021/12/08 05:12:36;;;;;;;1.67;0.70;;;5.70;95.40;;;;;;2088638;28;20029;-92
2021/12/08 05:13:37;;;;;;;1.42;0.60;;;5.70;95.40;;;;;;2082681;28;20022;-92
2021/12/08 05:15:09;;;;;;;4.28;1.08;;;5.70;95.40;;;;;;2082861;28;20056;-93
2021/12/08 05:16:10;;;;;;;3.42;0.80;;;5.70;95.40;;;;;;2085177;28;20043;-93
2021/12/08 05:17:19;;;;;;;4.22;0.70;;;5.60;95.40;;;;;;2082389;28;20510;-92
2021/12/08 05:18:24;;;;;;;2.47;0.85;;;5.60;95.40;;;;;;2082658;28;20130;-93
2021/12/08 05:19:28;;;;;;;2.95;0.82;;;5.60;95.50;;;;;;2090900;28;20115;-92
2021/12/08 05:20:48;;;;;;;1.75;0.65;;;5.60;95.50;;;;;;2093291;28;20020;-92
2021/12/08 05:21:52;;;;;;;;;;;5.50;95.50;;;;;;2090471;28;20101;-92
2021/12/08 05:22:57;;;;;;;1.50;0.60;;;5.50;95.50;;;;;;2090455;28;19915;-85
2021/12/08 05:24:12;;;;;;;3.20;0.98;;;5.50;95.50;;;;;;2090339;28;20033;-93
2021/12/08 05:25:19;;;;;;;1.58;0.60;;;5.50;95.50;;;;;;2078466;28;20045;-91
2021/12/08 05:27:03;;;;;;;2.22;0.57;;;5.50;95.50;;;;;;2078053;28;20048;-92
2021/12/08 05:28:08;;;;;;;2.72;0.60;;;5.50;95.50;;;;;;2081391;28;20042;-92
2021/12/08 05:29:32;;;;;;;1.50;0.60;;;5.50;95.50;;;;;;2081894;28;20103;-92
2021/12/08 05:30:43;;;;;;;2.72;0.70;;;5.50;95.50;;;;;;2084837;28;20025;-92
2021/12/08 05:31:44;;;;;;;2.28;0.77;;;5.50;95.50;;;;;;2086589;28;20036;-92
2021/12/08 05:32:45;;;;;;;2.83;0.75;;;5.50;95.40;;;;;;2087358;28;20020;-92
2021/12/08 05:33:47;;;;;;;2.45;0.70;;;5.60;95.40;;;;;;2081326;28;20032;-92
2021/12/08 05:34:48;;;;;;;2.80;0.70;;;5.60;95.40;;;;;;2083212;28;20041;-92
2021/12/08 05:35:52;;;;;;;2.30;0.52;;;5.60;95.40;;;;;;2091769;28;20048;-93
2021/12/08 05:36:53;;;;;;;2.10;0.88;;;5.60;95.40;;;;;;2076196;28;20030;-93
2021/12/08 05:37:55;;;;;;;4.45;0.88;;;5.60;95.40;;;;;;2075654;28;20365;-92
2021/12/08 05:38:57;;;;;;;3.28;0.88;;;5.60;95.40;;;;;;2090460;28;20049;-93
2021/12/08 05:39:58;;;;;;;2.05;0.75;;;5.60;95.40;;;;;;2074439;28;20096;-91
2021/12/08 05:41:09;;;;;;;3.42;0.73;;;5.70;95.40;;;;;;2077870;28;20029;-92
2021/12/08 05:42:18;;;;;;;1.55;0.60;;;5.60;95.30;;;;;;2083161;28;20026;-91
2021/12/08 05:43:19;;;;;;;1.92;0.55;;;5.70;95.40;;;;;;2083111;28;20100;-93
2021/12/08 05:44:20;;;;;;;1.98;0.57;;;5.70;95.30;;;;;;2084546;28;20034;-92
2021/12/08 05:45:23;;;;;;;3.85;1.08;;;5.70;95.30;;;;;;2089913;28;20061;-92
2021/12/08 05:46:26;;;;;;;2.70;0.80;;;5.70;95.30;;;;;;2083496;28;20404;-92
2021/12/08 05:47:30;;;;;;;1.70;0.75;;;5.70;95.30;;;;;;2083290;28;20021;-93
2021/12/08 05:48:33;;;;;;;2.72;0.80;;;5.70;95.30;;;;;;2090985;28;20123;-92
2021/12/08 05:49:34;;;;;;;3.08;0.80;;;5.70;95.30;;;;;;2091443;28;20118;-91
2021/12/08 05:50:49;;;;;;;2.00;0.80;;;5.70;95.30;;;;;;2091122;28;20031;-91
2021/12/08 05:51:53;;;;;;;2.00;0.68;;;5.70;95.30;;;;;;2088953;28;20479;-92
2021/12/08 05:52:54;;;;;;;2.40;0.82;;;5.70;95.30;;;;;;2090936;28;20025;-91
2021/12/08 05:54:00;;;;;;;4.63;0.77;;;5.70;95.30;;;;;;2082331;28;20120;-91
2021/12/08 05:55:05;;;;;;;2.17;0.70;;;5.70;95.30;;;;;;2075388;28;20118;-92
2021/12/08 05:56:07;;;;;;;3.17;0.80;;;5.60;95.20;;;;;;2082986;28;20100;-92
2021/12/08 05:57:13;;;;;;;1.75;0.68;;;5.60;95.30;;;;;;2077602;28;20021;-92
2021/12/08 05:58:15;;;;;;;3.30;1.10;;;5.60;95.30;;;;;;2085335;28;20017;-92
2021/12/08 05:59:16;;;;;;;3.13;0.80;;;5.60;95.30;;;;;;2091504;28;20029;-92
2021/12/08 06:00:47;;;;;;;2.47;0.60;;;5.60;95.30;;;;;;2078426;28;20106;-91
2021/12/08 06:01:53;;;;;;;2.70;0.70;;;5.60;95.30;;;;;;2083363;28;20033;-89
2021/12/08 06:02:55;;;;;;;2.28;0.80;;;5.60;95.30;;;;;;2099393;28;20024;-90
2021/12/08 06:03:57;;;;;;;2.75;0.70;;;5.50;95.30;;;;;;2099428;28;20025;-90
2021/12/08 06:04:58;;;;;;;3.45;0.70;;;5.50;95.30;;;;;;2092155;28;20073;-88
2021/12/08 06:06:00;;;;;;;4.63;0.88;;;5.50;95.30;;;;;;2100232;28;20016;-88
2021/12/08 06:07:04;;;;;;;2.53;0.82;;;5.50;95.30;;;;;;2094943;28;20032;-86
2021/12/08 06:08:05;;;;;;;3.50;0.73;;;5.50;95.30;;;;;;2098642;28;20049;-90
2021/12/08 06:09:09;;;;;;;2.60;0.75;;;5.50;95.30;;;;;;2095070;28;20106;-91
2021/12/08 06:10:23;;;;;;;3.60;0.70;;;5.50;95.30;;;;;;2090298;28;20021;-92
2021/12/08 06:11:26;;;;;;;2.50;0.65;;;5.40;95.30;;;;;;2089221;28;20093;-92
2021/12/08 06:12:27;;;;;;;3.15;0.80;;;5.50;95.30;;;;;;2089173;28;20055;-92
2021/12/08 06:13:28;;;;;;;3.63;1.20;;;5.40;95.30;;;;;;2084556;28;20116;-93
2021/12/08 06:14:32;;;;;;;3.17;0.80;;;5.40;95.30;;;;;;2082515;28;20033;-92
2021/12/08 06:15:37;;;;;;;3.10;0.73;;;5.40;95.30;;;;;;2084528;28;20105;-91